Time;durP1;ratioP1;P1;durP2;ratioP2;P2;SDS_P1;SDS_P2;PMS_P1;PMS_P2;Temp;Humidity;BMP_temperature;BMP_pressure;BME280_temperature;BME280_humidity;BME280_pressure;Samples;Min_cycle;Max_cycle;Signal;HPM_P1;HPM_P2
2022/05/20 00:02:13;;;;;;;9.32;7.68;;;14.40;99.90;;;;;;5064734;28;20063;-43
2022/05/20 00:04:39;;;;;;;10.57;7.82;;;14.30;99.90;;;;;;5065294;28;20044;-43
2022/05/20 00:07:05;;;;;;;11.38;8.00;;;14.30;99.90;;;;;;5064559;28;20063;-43
2022/05/20 00:09:30;;;;;;;9.98;8.07;;;14.30;99.90;;;;;;5064787;28;20029;-44
2022/05/20 00:11:56;;;;;;;11.23;8.65;;;14.30;99.90;;;;;;5066324;28;20055;-43
2022/05/20 00:14:21;;;;;;;7.60;6.15;;;14.20;99.90;;;;;;5064078;28;20571;-43
2022/05/20 00:16:47;;;;;;;8.75;7.25;;;14.20;99.90;;;;;;5065232;28;20032;-43
2022/05/20 00:19:13;;;;;;;9.15;7.60;;;14.20;99.90;;;;;;5064823;28;20032;-43
2022/05/20 00:21:38;;;;;;;9.45;7.78;;;14.20;99.90;;;;;;5064389;28;20060;-43
2022/05/20 00:24:04;;;;;;;10.38;7.70;;;14.20;99.90;;;;;;5065138;28;20076;-42
2022/05/20 00:26:30;;;;;;;11.57;7.75;;;14.20;99.90;;;;;;5064289;28;20024;-43
2022/05/20 00:28:56;;;;;;;10.30;7.80;;;14.20;99.90;;;;;;5064814;28;20067;-41
2022/05/20 00:31:25;;;;;;;10.70;8.55;;;14.20;99.90;;;;;;5064857;28;20028;-43
2022/05/20 00:33:51;;;;;;;10.73;8.57;;;14.20;99.90;;;;;;5064536;28;20016;-43
2022/05/20 00:36:17;;;;;;;10.52;8.68;;;14.10;99.90;;;;;;5064719;28;20025;-43
2022/05/20 00:38:43;;;;;;;12.68;8.82;;;14.10;99.90;;;;;;5065082;28;20028;-42
2022/05/20 00:41:09;;;;;;;10.38;9.18;;;14.10;99.90;;;;;;5064996;28;20512;-44
2022/05/20 00:43:47;;;;;;;11.48;8.60;;;14.10;99.90;;;;;;5064185;28;20132;-43
2022/05/20 00:46:19;;;;;;;9.93;8.52;;;14.10;99.90;;;;;;5062643;28;20040;-43
2022/05/20 00:48:45;;;;;;;12.65;7.65;;;14.10;99.90;;;;;;5064423;28;20036;-43
2022/05/20 00:51:37;;;;;;;10.20;8.02;;;14.00;99.90;;;;;;5065118;28;20200;-42
2022/05/20 00:54:09;;;;;;;9.32;7.88;;;14.00;99.90;;;;;;5064803;28;20542;-42
2022/05/20 00:56:40;;;;;;;9.73;8.32;;;14.00;99.90;;;;;;5063604;28;20477;-43
2022/05/20 00:59:11;;;;;;;13.25;9.25;;;13.90;99.90;;;;;;5065022;28;20566;-42
2022/05/20 01:01:37;;;;;;;9.75;7.95;;;13.90;99.90;;;;;;5057016;28;20053;-42
2022/05/20 01:04:05;;;;;;;9.02;7.72;;;13.90;99.90;;;;;;5048735;28;20427;-42
2022/05/20 01:06:31;;;;;;;9.05;7.85;;;13.90;99.90;;;;;;5054588;28;20503;-43
2022/05/20 01:08:56;;;;;;;10.65;9.43;;;13.80;99.90;;;;;;5068215;28;20020;-43
2022/05/20 01:11:22;;;;;;;11.85;9.88;;;13.80;99.90;;;;;;5055320;28;20805;-44
2022/05/20 01:13:49;;;;;;;10.15;9.05;;;13.70;99.90;;;;;;5067930;28;20074;-43
2022/05/20 01:16:15;;;;;;;11.65;9.40;;;13.70;99.90;;;;;;5056765;28;20064;-43
2022/05/20 01:18:45;;;;;;;10.43;9.30;;;13.70;99.90;;;;;;5065938;28;20021;-42
2022/05/20 01:21:11;;;;;;;12.18;8.35;;;13.70;99.90;;;;;;5058540;28;20025;-43
2022/05/20 01:23:37;;;;;;;10.55;8.93;;;13.70;99.90;;;;;;5063444;28;20033;-43
2022/05/20 01:26:04;;;;;;;10.30;9.20;;;13.70;99.90;;;;;;5061902;28;20055;-43
2022/05/20 01:28:31;;;;;;;11.38;10.18;;;13.70;99.90;;;;;;5061707;28;20365;-42
2022/05/20 01:30:58;;;;;;;14.63;10.27;;;13.70;99.90;;;;;;5063257;28;20017;-42
2022/05/20 01:33:34;;;;;;;11.88;9.02;;;13.70;99.90;;;;;;5059583;28;20020;-43
2022/05/20 01:36:02;;;;;;;10.77;9.48;;;13.70;99.90;;;;;;5064900;28;20614;-43
2022/05/20 01:38:28;;;;;;;11.63;10.07;;;13.70;99.90;;;;;;5057887;28;20043;-42
2022/05/20 01:40:59;;;;;;;14.20;9.63;;;13.70;99.90;;;;;;5066671;28;20028;-44
2022/05/20 01:43:33;;;;;;;11.48;9.30;;;13.60;99.90;;;;;;5045355;28;20039;-44
2022/05/20 01:46:37;;;;;;;10.60;9.50;;;13.70;99.90;;;;;;5065863;28;20850;-43
2022/05/20 01:49:20;;;;;;;15.48;9.77;;;13.60;99.90;;;;;;4996796;28;20144;-44
2022/05/20 01:52:10;;;;;;;14.07;10.00;;;13.60;99.90;;;;;;5041115;28;20031;-43
2022/05/20 01:54:47;;;;;;;10.75;9.65;;;13.60;99.90;;;;;;5051341;28;20063;-42
2022/05/20 01:57:33;;;;;;;11.07;9.80;;;13.60;99.90;;;;;;5054402;28;20024;-42
2022/05/20 02:00:28;;;;;;;11.15;9.18;;;13.50;99.90;;;;;;5050211;28;20527;-44
2022/05/20 02:03:19;;;;;;;10.65;9.55;;;13.50;99.90;;;;;;5052061;28;20091;-44
2022/05/20 02:06:04;;;;;;;11.35;10.20;;;13.50;99.90;;;;;;5026934;28;20053;-43
2022/05/20 02:08:37;;;;;;;12.10;9.93;;;13.50;99.90;;;;;;5058147;28;20048;-43
2022/05/20 02:11:15;;;;;;;10.65;9.32;;;13.50;99.90;;;;;;5047605;28;20028;-43
2022/05/20 02:13:46;;;;;;;11.38;9.65;;;13.50;99.90;;;;;;5057976;28;20029;-42
2022/05/20 02:16:21;;;;;;;10.75;9.65;;;13.40;99.90;;;;;;5047650;28;20090;-43
2022/05/20 02:18:52;;;;;;;11.02;9.80;;;13.50;99.90;;;;;;5059324;28;20033;-43
2022/05/20 02:21:22;;;;;;;11.85;10.55;;;13.50;99.90;;;;;;5059888;28;20079;-44
2022/05/20 02:23:56;;;;;;;13.07;9.85;;;13.40;99.90;;;;;;5054322;28;20029;-43
2022/05/20 02:26:26;;;;;;;12.07;10.07;;;13.40;99.90;;;;;;5066206;28;20028;-43
2022/05/20 02:28:59;;;;;;;12.98;10.00;;;13.40;99.90;;;;;;5054786;28;20112;-43
2022/05/20 02:31:32;;;;;;;11.30;9.73;;;13.40;99.90;;;;;;5026557;28;20054;-43
2022/05/20 02:33:58;;;;;;;11.60;9.57;;;13.40;99.90;;;;;;5053970;28;20043;-42
2022/05/20 02:36:28;;;;;;;11.80;9.90;;;13.40;99.90;;;;;;5046974;28;20560;-43
2022/05/20 02:38:54;;;;;;;12.07;10.07;;;13.40;99.90;;;;;;5056908;28;20381;-43
2022/05/20 02:41:19;;;;;;;11.95;10.32;;;13.30;99.90;;;;;;5048653;28;20556;-43
2022/05/20 02:43:45;;;;;;;12.07;10.45;;;13.30;99.90;;;;;;5053550;28;20036;-44
2022/05/20 02:46:12;;;;;;;12.93;11.02;;;13.30;99.90;;;;;;5052245;28;20778;-43
2022/05/20 02:48:38;;;;;;;12.65;10.95;;;13.30;99.90;;;;;;5050407;28;20040;-42
2022/05/20 02:51:04;;;;;;;12.07;10.77;;;13.30;99.90;;;;;;5054622;28;20064;-43
2022/05/20 02:53:29;;;;;;;15.85;11.20;;;13.30;99.90;;;;;;5048453;28;20028;-43
2022/05/20 02:55:55;;;;;;;11.85;10.65;;;13.30;99.90;;;;;;5056534;28;20017;-42
2022/05/20 03:04:09;;;;;;;11.93;10.32;;;13.20;99.90;;;;;;5066163;28;20040;-43
2022/05/20 03:06:40;;;;;;;11.95;10.43;;;13.20;99.90;;;;;;5065965;28;20020;-43
2022/05/20 03:09:07;;;;;;;11.80;10.60;;;13.20;99.90;;;;;;5065340;28;20031;-42
2022/05/20 03:11:34;;;;;;;12.15;10.43;;;13.20;99.90;;;;;;5065564;28;20186;-43
2022/05/20 03:14:01;;;;;;;12.18;10.88;;;13.20;99.90;;;;;;5066034;28;20098;-44
2022/05/20 03:16:26;;;;;;;14.38;10.95;;;13.20;99.90;;;;;;5065135;28;20048;-42
2022/05/20 03:18:52;;;;;;;13.60;10.68;;;13.20;99.90;;;;;;5066240;28;20479;-42
2022/05/20 03:21:18;;;;;;;11.23;10.05;;;13.20;99.90;;;;;;5065581;28;20035;-43
2022/05/20 03:23:43;;;;;;;12.48;9.93;;;13.10;99.90;;;;;;5064641;28;20189;-43
2022/05/20 03:26:09;;;;;;;13.38;10.65;;;13.10;99.90;;;;;;5066083;28;20548;-43
2022/05/20 03:28:35;;;;;;;13.40;10.75;;;13.10;99.90;;;;;;5065405;28;20032;-43
2022/05/20 03:31:09;;;;;;;11.77;10.15;;;13.10;99.90;;;;;;5064922;28;20103;-43
2022/05/20 03:33:35;;;;;;;11.27;9.77;;;13.00;99.90;;;;;;5065139;28;20051;-43
2022/05/20 03:36:01;;;;;;;13.25;10.60;;;13.00;99.90;;;;;;5065534;28;20025;-43
2022/05/20 03:38:27;;;;;;;12.43;10.23;;;13.00;99.90;;;;;;5064514;28;20035;-43
2022/05/20 03:40:53;;;;;;;11.88;10.50;;;13.00;99.90;;;;;;5065939;28;20025;-42
2022/05/20 03:43:18;;;;;;;11.82;10.48;;;12.90;99.90;;;;;;5065380;28;20468;-44
2022/05/20 03:45:44;;;;;;;13.45;11.18;;;12.90;99.90;;;;;;5064673;28;20552;-44
2022/05/20 03:48:10;;;;;;;13.70;10.77;;;12.90;99.90;;;;;;5065658;28;20058;-42
2022/05/20 03:50:36;;;;;;;13.57;10.60;;;12.90;99.90;;;;;;5064756;28;20063;-43
2022/05/20 03:53:02;;;;;;;12.60;11.35;;;13.00;99.90;;;;;;5065420;28;20058;-42
2022/05/20 03:55:28;;;;;;;12.65;11.35;;;13.00;99.90;;;;;;5064990;28;20052;-43
2022/05/20 03:57:53;;;;;;;12.07;10.82;;;13.00;99.90;;;;;;5065006;28;20079;-44
2022/05/20 04:00:19;;;;;;;12.25;10.52;;;13.00;99.90;;;;;;5063905;28;20489;-43
2022/05/20 04:02:45;;;;;;;13.07;10.55;;;13.00;99.90;;;;;;5053948;28;20055;-43
2022/05/20 04:05:10;;;;;;;11.55;10.32;;;13.00;99.90;;;;;;5064713;28;20540;-42
2022/05/20 04:07:38;;;;;;;13.10;11.68;;;13.00;99.90;;;;;;5052572;28;20384;-42
2022/05/20 04:10:07;;;;;;;12.70;10.57;;;13.00;99.90;;;;;;5065028;28;20567;-45
2022/05/20 04:12:36;;;;;;;13.35;10.45;;;13.00;99.90;;;;;;5051417;28;20033;-43
2022/05/20 04:15:04;;;;;;;12.43;10.40;;;13.00;99.90;;;;;;5065743;28;20408;-43
2022/05/20 04:17:29;;;;;;;11.45;10.20;;;13.00;99.90;;;;;;5052024;28;20033;-44
2022/05/20 04:19:55;;;;;;;12.70;10.30;;;13.00;99.90;;;;;;5063619;28;20078;-44
2022/05/20 04:22:27;;;;;;;13.60;10.80;;;13.00;99.90;;;;;;5055219;28;20527;-43
2022/05/20 04:24:53;;;;;;;14.07;10.55;;;13.00;99.90;;;;;;5064262;28;20029;-44
2022/05/20 04:27:19;;;;;;;11.45;10.35;;;13.00;99.90;;;;;;5056798;28;20025;-43
2022/05/20 04:29:45;;;;;;;12.85;10.63;;;13.10;99.90;;;;;;5061283;28;20034;-44
2022/05/20 04:32:10;;;;;;;12.80;10.77;;;13.10;99.90;;;;;;5059413;28;20416;-43
2022/05/20 04:34:36;;;;;;;14.77;11.38;;;13.10;99.90;;;;;;5056337;28;20466;-43
2022/05/20 04:37:02;;;;;;;13.02;11.23;;;13.10;99.90;;;;;;5065266;28;20021;-43
2022/05/20 04:39:27;;;;;;;13.07;11.13;;;13.20;99.90;;;;;;5059493;28;20120;-43
2022/05/20 04:47:26;;;;;;;10.73;9.70;;;13.30;99.90;;;;;;5064674;28;20043;-43
2022/05/20 04:49:52;;;;;;;12.55;10.13;;;13.20;99.90;;;;;;5059983;28;20035;-43
2022/05/20 04:52:18;;;;;;;12.98;10.60;;;13.20;99.90;;;;;;5067082;28;20048;-43
2022/05/20 04:54:50;;;;;;;14.05;10.15;;;13.20;99.90;;;;;;5056375;28;20031;-42
2022/05/20 04:57:46;;;;;;;11.88;10.48;;;13.20;99.90;;;;;;5067158;28;20024;-43
2022/05/20 05:00:17;;;;;;;10.25;9.25;;;13.20;99.90;;;;;;5050182;28;20489;-43
2022/05/20 05:02:43;;;;;;;12.35;10.27;;;13.20;99.90;;;;;;5066520;28;20386;-42
2022/05/20 05:05:12;;;;;;;12.60;10.43;;;13.20;99.90;;;;;;5057674;28;20074;-42
2022/05/20 05:07:40;;;;;;;15.32;11.25;;;13.30;99.90;;;;;;5067046;28;20388;-42
2022/05/20 05:10:07;;;;;;;12.77;11.45;;;13.30;99.90;;;;;;5057027;28;20033;-42
2022/05/20 05:12:33;;;;;;;13.13;11.45;;;13.40;99.90;;;;;;5067135;28;20033;-43
2022/05/20 05:14:59;;;;;;;12.88;11.02;;;13.40;99.90;;;;;;5056373;28;20376;-42
2022/05/20 05:20:13;;;;;;;14.00;12.48;;;13.50;99.90;;;;;;5054526;28;20506;-43
2022/05/20 05:22:39;;;;;;;15.02;12.30;;;13.60;99.90;;;;;;5047450;28;20025;-42
2022/05/20 05:25:05;;;;;;;14.02;12.55;;;13.60;99.90;;;;;;5060800;28;20089;-42
2022/05/20 05:27:31;;;;;;;14.25;11.95;;;13.70;99.90;;;;;;5047895;28;20017;-43
2022/05/20 05:29:56;;;;;;;15.45;12.38;;;13.70;99.90;;;;;;5060175;28;20048;-43
2022/05/20 05:32:22;;;;;;;15.98;12.60;;;13.70;99.90;;;;;;5047910;28;20126;-42
2022/05/20 05:34:48;;;;;;;13.25;11.93;;;13.80;99.90;;;;;;5057462;28;20025;-43
2022/05/20 05:37:13;;;;;;;13.25;11.88;;;13.80;99.90;;;;;;5049716;28;20049;-43
2022/05/20 05:39:39;;;;;;;15.20;13.60;;;13.90;99.90;;;;;;5055110;28;20115;-42
2022/05/20 05:42:05;;;;;;;16.30;13.10;;;13.90;99.90;;;;;;5052590;28;20809;-44
2022/05/20 05:44:30;;;;;;;16.50;13.82;;;13.90;99.90;;;;;;5051361;28;20040;-44
2022/05/20 05:46:56;;;;;;;15.45;13.68;;;14.00;99.90;;;;;;5055332;28;20058;-43
2022/05/20 05:49:22;;;;;;;16.55;14.30;;;14.00;99.90;;;;;;5046570;28;20027;-43
2022/05/20 05:51:47;;;;;;;17.45;13.30;;;14.10;99.90;;;;;;5056468;28;20032;-42
2022/05/20 05:54:13;;;;;;;15.80;13.27;;;14.10;99.90;;;;;;5048008;28;20044;-42
2022/05/20 05:56:39;;;;;;;15.45;13.23;;;14.20;99.90;;;;;;5058761;28;20024;-42
2022/05/20 05:59:05;;;;;;;13.20;11.77;;;14.20;99.90;;;;;;5046534;28;20037;-42
2022/05/20 06:01:31;;;;;;;14.27;12.73;;;14.20;99.90;;;;;;5057253;28;20044;-41
2022/05/20 06:03:56;;;;;;;14.57;11.73;;;14.30;99.90;;;;;;5046516;28;20051;-43
2022/05/20 06:06:22;;;;;;;11.77;10.57;;;14.30;99.90;;;;;;5058619;28;20475;-43
2022/05/20 06:08:47;;;;;;;11.60;9.70;;;14.40;99.90;;;;;;5046674;28;20112;-42
2022/05/20 06:11:14;;;;;;;12.32;10.23;;;14.40;99.90;;;;;;5057244;28;20032;-42
2022/05/20 06:13:40;;;;;;;12.52;9.10;;;14.50;99.90;;;;;;5045615;28;20581;-43
2022/05/20 06:16:06;;;;;;;9.43;7.70;;;14.50;99.90;;;;;;5056379;28;20029;-45
2022/05/20 06:18:31;;;;;;;12.15;8.27;;;14.60;99.90;;;;;;5048088;28;20762;-42
2022/05/20 06:20:57;;;;;;;10.57;8.55;;;14.60;99.90;;;;;;5055850;28;20055;-42
2022/05/20 06:23:23;;;;;;;8.18;7.30;;;14.70;99.90;;;;;;5049391;28;20067;-43
2022/05/20 06:25:49;;;;;;;11.40;8.38;;;14.80;99.90;;;;;;5049667;28;20027;-41
2022/05/20 06:28:16;;;;;;;10.18;8.30;;;14.80;99.90;;;;;;5054557;28;20029;-42
2022/05/20 06:30:43;;;;;;;12.57;9.82;;;14.80;99.90;;;;;;5047063;28;20816;-43
2022/05/20 06:33:09;;;;;;;17.35;10.85;;;14.80;99.90;;;;;;5056137;28;20021;-42
2022/05/20 06:41:06;;;;;;;15.45;11.05;;;14.90;99.90;;;;;;5063378;28;20546;-43
2022/05/20 06:43:32;;;;;;;11.13;9.85;;;14.90;99.90;;;;;;5055668;28;20041;-43
2022/05/20 06:46:00;;;;;;;11.27;10.07;;;14.90;99.90;;;;;;5065297;28;20112;-43
2022/05/20 06:48:38;;;;;;;11.80;9.95;;;15.00;99.90;;;;;;5053170;28;20024;-43
2022/05/20 06:51:05;;;;;;;13.80;10.50;;;15.00;99.90;;;;;;5065372;28;20442;-43
2022/05/20 06:53:31;;;;;;;11.15;9.20;;;15.10;99.90;;;;;;5040734;28;20388;-43
2022/05/20 06:55:57;;;;;;;11.15;9.23;;;15.20;99.90;;;;;;5055872;28;20507;-43
2022/05/20 06:58:22;;;;;;;10.00;8.65;;;15.30;99.90;;;;;;5056873;28;20036;-43
2022/05/20 07:00:48;;;;;;;9.57;8.02;;;15.40;99.90;;;;;;5050151;28;20048;-43
2022/05/20 07:03:14;;;;;;;9.63;8.60;;;15.40;99.90;;;;;;5047709;28;20041;-42
2022/05/20 07:05:39;;;;;;;9.38;8.15;;;15.50;99.90;;;;;;5046886;28;20064;-42
2022/05/20 07:08:05;;;;;;;10.52;7.40;;;15.60;99.90;;;;;;5046054;28;20123;-43
2022/05/20 07:10:31;;;;;;;9.05;7.90;;;15.60;99.90;;;;;;5046165;28;20041;-42
2022/05/20 07:12:56;;;;;;;7.75;6.95;;;15.70;99.90;;;;;;5045897;28;20044;-42
2022/05/20 07:15:25;;;;;;;10.85;8.32;;;15.70;99.90;;;;;;5045711;28;20029;-41
2022/05/20 07:17:50;;;;;;;9.85;7.25;;;15.80;99.90;;;;;;5046962;28;20032;-43
2022/05/20 07:20:16;;;;;;;8.48;6.72;;;15.90;99.90;;;;;;5046256;28;20021;-42
2022/05/20 07:22:41;;;;;;;9.07;6.60;;;15.90;99.90;;;;;;5045088;28;20507;-40
2022/05/20 07:25:07;;;;;;;10.65;7.60;;;16.00;99.90;;;;;;5046124;28;20028;-43
2022/05/20 07:27:33;;;;;;;7.82;7.00;;;16.00;99.90;;;;;;5044607;28;20045;-43
2022/05/20 07:29:58;;;;;;;8.98;7.95;;;16.10;99.90;;;;;;5044114;28;20032;-42
2022/05/20 07:32:24;;;;;;;8.05;7.25;;;16.20;99.90;;;;;;5045986;28;20140;-42
2022/05/20 07:34:52;;;;;;;9.30;7.65;;;16.20;99.90;;;;;;5045964;28;20033;-44
2022/05/20 07:37:18;;;;;;;12.65;7.80;;;16.20;99.90;;;;;;5043521;28;20032;-43
2022/05/20 07:39:43;;;;;;;8.90;7.78;;;16.20;99.90;;;;;;5046019;28;20500;-42
2022/05/20 07:42:09;;;;;;;7.78;6.88;;;16.30;99.90;;;;;;5045373;28;20068;-43
2022/05/20 07:44:36;;;;;;;6.72;6.03;;;16.40;99.90;;;;;;5044694;28;20043;-42
2022/05/20 07:47:03;;;;;;;8.27;6.20;;;16.50;99.90;;;;;;5046326;28;20055;-42
2022/05/20 07:49:28;;;;;;;8.98;7.15;;;16.60;99.90;;;;;;5044695;28;20036;-41
2022/05/20 07:51:57;;;;;;;9.50;7.30;;;16.70;99.90;;;;;;5045665;28;20100;-43
2022/05/20 07:54:25;;;;;;;8.23;6.43;;;16.80;99.90;;;;;;5045313;28;20134;-44
2022/05/20 07:56:57;;;;;;;10.45;6.90;;;16.90;99.90;;;;;;5045397;28;20021;-44
2022/05/20 07:59:30;;;;;;;9.60;7.73;;;16.90;99.90;;;;;;5043919;28;20028;-43
2022/05/20 08:01:57;;;;;;;7.88;6.00;;;16.90;99.90;;;;;;5058776;28;20045;-42
2022/05/20 08:04:53;;;;;;;7.90;6.47;;;16.90;99.90;;;;;;5056109;28;20068;-44
2022/05/20 08:07:20;;;;;;;8.10;6.97;;;16.80;99.90;;;;;;5062032;28;20036;-43
2022/05/20 08:09:47;;;;;;;8.73;6.45;;;16.90;99.90;;;;;;5055399;28;20079;-43
2022/05/20 08:12:13;;;;;;;7.15;5.60;;;16.90;99.90;;;;;;5062807;28;20077;-42
2022/05/20 08:14:41;;;;;;;5.93;5.30;;;17.00;99.90;;;;;;5062483;28;20041;-43
2022/05/20 08:17:07;;;;;;;8.43;5.60;;;17.20;99.90;;;;;;5063594;28;20453;-40
2022/05/20 08:19:33;;;;;;;5.55;4.72;;;17.40;99.90;;;;;;5058801;28;20043;-42
2022/05/20 08:21:59;;;;;;;6.15;4.85;;;17.60;99.90;;;;;;5060720;28;20028;-42
2022/05/20 08:24:25;;;;;;;8.10;5.85;;;17.80;99.90;;;;;;5067686;28;20039;-45
2022/05/20 08:26:51;;;;;;;7.15;4.78;;;17.90;99.90;;;;;;5046565;28;20063;-44
2022/05/20 08:29:18;;;;;;;6.28;4.55;;;18.10;99.90;;;;;;5067918;28;20143;-42
2022/05/20 08:31:45;;;;;;;7.38;4.75;;;18.10;99.90;;;;;;5056802;28;20037;-45
2022/05/20 08:34:11;;;;;;;5.78;5.15;;;18.20;99.90;;;;;;5069008;28;20048;-43
2022/05/20 08:36:38;;;;;;;6.85;5.07;;;18.30;99.90;;;;;;5056529;28;20036;-43
2022/05/20 08:39:05;;;;;;;6.50;5.20;;;18.40;99.90;;;;;;5068417;28;20058;-43
2022/05/20 08:41:44;;;;;;;6.22;4.90;;;18.50;99.90;;;;;;5055138;28;20469;-42
2022/05/20 08:44:15;;;;;;;6.18;4.60;;;18.70;99.90;;;;;;5065855;28;20124;-43
2022/05/20 08:46:41;;;;;;;4.57;3.47;;;18.80;99.90;;;;;;5053720;28;20022;-42
2022/05/20 08:49:13;;;;;;;6.53;3.67;;;18.80;99.90;;;;;;5050469;28;20067;-41
2022/05/20 08:51:43;;;;;;;6.28;4.30;;;18.90;99.90;;;;;;5049206;28;20380;-42
2022/05/20 08:54:10;;;;;;;5.75;3.80;;;18.90;99.90;;;;;;5068484;28;20135;-43
2022/05/20 08:56:37;;;;;;;4.68;3.65;;;19.00;99.90;;;;;;5056757;28;20052;-43
2022/05/20 08:59:06;;;;;;;5.63;4.20;;;19.00;99.90;;;;;;5067035;28;20040;-41
2022/05/20 09:01:33;;;;;;;5.80;3.70;;;19.00;99.90;;;;;;5057779;28;20048;-43
2022/05/20 09:03:59;;;;;;;4.18;3.72;;;19.10;99.90;;;;;;5064496;28;20139;-43
2022/05/20 09:06:26;;;;;;;5.22;3.40;;;19.20;99.90;;;;;;5061231;28;20025;-42
2022/05/20 09:09:13;;;;;;;4.50;3.50;;;19.20;99.90;;;;;;5062011;28;20117;-42
2022/05/20 09:11:41;;;;;;;6.13;3.97;;;19.40;99.90;;;;;;5060922;28;20041;-43
2022/05/20 09:17:09;;;;;;;9.30;5.50;;;19.60;99.90;;;;;;5060859;28;20476;-43
2022/05/20 09:19:35;;;;;;;6.65;4.32;;;19.70;99.90;;;;;;5064848;28;20569;-43
2022/05/20 09:22:14;;;;;;;4.32;3.90;;;19.70;99.90;;;;;;5058362;28;20032;-42
2022/05/20 09:24:44;;;;;;;6.07;4.30;;;19.80;99.90;;;;;;5064739;28;20549;-43
2022/05/20 09:27:18;;;;;;;4.65;4.10;;;19.80;99.90;;;;;;5060825;28;20033;-44
2022/05/20 09:29:53;;;;;;;6.90;4.60;;;19.80;99.90;;;;;;5062686;28;20070;-43
2022/05/20 09:32:29;;;;;;;6.70;4.88;;;19.90;99.90;;;;;;5060586;28;20025;-43
2022/05/20 09:35:18;;;;;;;7.03;5.00;;;20.00;99.90;;;;;;5063984;28;20119;-42
2022/05/20 09:37:48;;;;;;;5.43;4.43;;;20.10;99.90;;;;;;5043882;28;20037;-42
2022/05/20 09:40:38;;;;;;;5.47;4.47;;;20.20;99.90;;;;;;5063988;28;20047;-42
2022/05/20 09:43:07;;;;;;;7.43;5.47;;;20.40;99.90;;;;;;5056593;28;20037;-42
2022/05/20 09:45:43;;;;;;;7.07;5.38;;;20.50;99.90;;;;;;5065870;28;20391;-44
2022/05/20 09:48:09;;;;;;;6.43;5.45;;;20.60;99.90;;;;;;5058504;28;20425;-43
2022/05/20 09:50:38;;;;;;;7.88;6.25;;;20.60;99.90;;;;;;5063047;28;20624;-42
2022/05/20 09:53:36;;;;;;;9.48;6.47;;;20.70;99.90;;;;;;5060091;28;20421;-42
2022/05/20 09:56:25;;;;;;;6.97;5.63;;;20.80;99.90;;;;;;5067155;28;20078;-42
2022/05/20 09:59:17;;;;;;;5.60;4.38;;;20.90;99.90;;;;;;5055138;28;20094;-43
2022/05/20 10:02:01;;;;;;;4.77;3.67;;;21.00;99.90;;;;;;5040553;28;20134;-43
2022/05/20 10:04:50;;;;;;;6.82;3.83;;;21.00;99.90;;;;;;5065707;28;20434;-42
2022/05/20 10:07:27;;;;;;;4.03;3.63;;;21.10;99.90;;;;;;5067958;28;20025;-42
2022/05/20 10:09:59;;;;;;;5.15;4.53;;;21.30;99.90;;;;;;5064021;28;20115;-44
2022/05/20 10:12:29;;;;;;;5.72;4.20;;;21.40;99.90;;;;;;5065374;28;20017;-42
2022/05/20 10:15:27;;;;;;;4.25;3.85;;;21.50;99.90;;;;;;5065579;28;20094;-43
2022/05/20 10:18:26;;;;;;;6.13;4.47;;;21.60;99.90;;;;;;5021373;28;20123;-41
2022/05/20 10:21:15;;;;;;;6.22;3.80;;;21.60;99.90;;;;;;5026369;28;20463;-42
2022/05/20 10:24:10;;;;;;;4.53;4.07;;;21.60;99.90;;;;;;5065116;28;20044;-43
2022/05/20 10:27:00;;;;;;;4.50;4.05;;;21.60;99.90;;;;;;5066202;28;20028;-43
2022/05/20 10:33:09;;;;;;;4.28;3.88;;;21.60;99.90;;;;;;5045647;28;20056;-43
2022/05/20 10:36:11;;;;;;;5.53;3.63;;;21.60;99.90;;;;;;5065116;28;20028;-43
2022/05/20 10:38:48;;;;;;;5.45;3.90;;;21.60;99.90;;;;;;5066480;28;20021;-44
2022/05/20 10:41:35;;;;;;;4.85;3.92;;;21.70;99.90;;;;;;5066028;28;20024;-42
2022/05/20 10:50:33;;;;;;;5.13;3.17;;;22.00;99.90;;;;;;4983577;28;20950;-43
2022/05/20 10:53:30;;;;;;;4.55;3.65;;;22.00;99.90;;;;;;4983710;28;20041;-42
2022/05/20 10:56:26;;;;;;;5.05;3.30;;;22.10;99.90;;;;;;5052014;28;20036;-43
2022/05/20 10:59:11;;;;;;;6.13;3.50;;;22.20;99.90;;;;;;5066594;28;20322;-42
2022/05/20 11:01:44;;;;;;;4.53;3.97;;;22.20;99.90;;;;;;5055903;28;20081;-41
2022/05/20 11:04:37;;;;;;;3.95;3.28;;;22.20;99.90;;;;;;5046554;28;20558;-42
2022/05/20 11:07:19;;;;;;;3.20;2.83;;;22.20;99.90;;;;;;5055537;28;20037;-41
2022/05/20 11:09:53;;;;;;;4.10;2.75;;;22.20;99.90;;;;;;5046429;28;20470;-40
2022/05/20 11:12:29;;;;;;;3.85;3.45;;;22.30;99.90;;;;;;5057441;28;20473;-41
2022/05/20 11:15:09;;;;;;;3.60;3.13;;;22.30;99.40;;;;;;5047516;28;20017;-41
2022/05/20 11:18:02;;;;;;;4.35;3.40;;;22.30;99.20;;;;;;5043150;28;20037;-45
2022/05/20 11:21:19;;;;;;;4.47;3.38;;;22.30;98.70;;;;;;5062431;28;20035;-44
2022/05/20 11:24:28;;;;;;;4.32;3.28;;;22.40;98.20;;;;;;5000604;28;20124;-41
2022/05/20 11:27:14;;;;;;;4.85;3.38;;;22.40;98.30;;;;;;5003721;28;20033;-39
2022/05/20 11:30:04;;;;;;;3.88;3.40;;;22.40;98.00;;;;;;5042321;28;20041;-40
2022/05/20 11:32:35;;;;;;;5.88;4.30;;;22.50;97.80;;;;;;5052858;28;20081;-39
2022/05/20 11:35:48;;;;;;;4.35;3.65;;;22.50;97.10;;;;;;5065334;28;20028;-39
2022/05/20 11:39:06;;;;;;;4.95;3.13;;;22.50;97.10;;;;;;4945110;29;20570;-42
2022/05/20 11:41:58;;;;;;;3.33;3.03;;;22.60;97.30;;;;;;4940049;28;20039;-41
2022/05/20 11:44:49;;;;;;;6.45;4.38;;;22.70;97.30;;;;;;5059387;28;20052;-40
2022/05/20 11:47:43;;;;;;;4.78;4.00;;;22.70;97.00;;;;;;5054771;28;20111;-41
2022/05/20 11:50:33;;;;;;;5.32;4.47;;;22.60;97.00;;;;;;5024965;28;20037;-41
2022/05/20 11:53:05;;;;;;;4.25;3.70;;;22.60;96.90;;;;;;5057000;28;20024;-41
2022/05/20 11:55:46;;;;;;;5.25;4.32;;;22.50;97.10;;;;;;5045833;28;20141;-39
2022/05/20 11:58:21;;;;;;;6.63;5.53;;;22.40;97.10;;;;;;5057962;28;20033;-39
2022/05/20 12:00:48;;;;;;;5.15;4.40;;;22.40;97.10;;;;;;5049924;28;20527;-39
2022/05/20 12:03:21;;;;;;;5.60;4.78;;;22.30;97.20;;;;;;5051769;28;20032;-41
2022/05/20 12:05:48;;;;;;;;;;;22.20;97.40;;;;;;5065650;28;20086;-40
2022/05/20 12:08:39;;;;;;;6.97;5.35;;;22.10;97.30;;;;;;5052265;28;19912;-42
2022/05/20 12:11:31;;;;;;;6.45;4.95;;;22.00;97.50;;;;;;5062837;28;20024;-38
2022/05/20 12:14:01;;;;;;;5.97;5.10;;;22.00;97.70;;;;;;5053692;28;20039;-41
2022/05/20 12:16:27;;;;;;;7.97;6.45;;;21.90;97.70;;;;;;5052210;28;20514;-41
2022/05/20 12:24:40;;;;;;;6.40;5.45;;;21.80;98.10;;;;;;5053036;28;20110;-41
2022/05/20 12:27:33;;;;;;;6.78;5.65;;;21.60;98.30;;;;;;5047617;28;20021;-42
2022/05/20 12:30:28;;;;;;;;;;;21.60;98.50;;;;;;5043629;28;20123;-42
2022/05/20 12:32:54;;;;;;;6.68;5.70;;;21.50;98.70;;;;;;5048121;28;20360;-42
2022/05/20 12:35:29;;;;;;;12.13;5.95;;;21.40;98.80;;;;;;5055742;28;20021;-38
2022/05/20 12:38:18;;;;;;;7.43;5.88;;;21.30;99.00;;;;;;5063253;28;20491;-42
2022/05/20 12:40:44;;;;;;;7.00;6.15;;;21.30;99.10;;;;;;5057216;28;20029;-41
2022/05/20 12:43:10;;;;;;;13.10;8.77;;;21.20;99.30;;;;;;5063794;28;20031;-41
2022/05/20 12:45:52;;;;;;;8.43;6.85;;;21.10;99.60;;;;;;5054853;28;20184;-41
2022/05/20 12:48:23;;;;;;;6.53;5.78;;;21.10;99.90;;;;;;5063689;28;20028;-39
2022/05/20 12:51:07;;;;;;;7.68;6.50;;;21.00;99.90;;;;;;5048030;28;20028;-40
2022/05/20 12:53:38;;;;;;;10.57;8.18;;;20.90;99.90;;;;;;5049254;28;20958;-41
2022/05/20 12:56:04;;;;;;;9.90;8.32;;;20.80;99.90;;;;;;5056243;28;20036;-41
2022/05/20 12:58:35;;;;;;;10.95;9.27;;;20.70;99.90;;;;;;5067139;28;20090;-42
2022/05/20 13:01:03;;;;;;;9.65;8.50;;;20.50;99.90;;;;;;5057627;28;20055;-41
2022/05/20 13:03:45;;;;;;;12.38;10.20;;;20.40;99.90;;;;;;5069280;28;20016;-41
2022/05/20 13:06:15;;;;;;;10.32;8.70;;;20.30;99.90;;;;;;5057607;28;20047;-41
2022/05/20 13:08:56;;;;;;;9.90;8.68;;;20.30;99.90;;;;;;5069063;28;20040;-41
2022/05/20 13:11:25;;;;;;;11.07;9.02;;;20.20;99.90;;;;;;5059463;28;20501;-40
2022/05/20 13:13:53;;;;;;;12.20;9.45;;;20.20;99.90;;;;;;5067391;28;20024;-40
2022/05/20 13:16:23;;;;;;;12.00;9.02;;;20.10;99.90;;;;;;5067343;28;20028;-40
2022/05/20 13:19:09;;;;;;;10.63;9.02;;;20.10;99.90;;;;;;5067389;28;20020;-41
2022/05/20 13:21:51;;;;;;;11.57;9.27;;;20.10;99.90;;;;;;5066148;28;20108;-40
2022/05/20 13:24:19;;;;;;;11.55;9.15;;;20.10;99.90;;;;;;5068611;28;20052;-46
2022/05/20 13:26:45;;;;;;;14.50;11.45;;;20.10;99.90;;;;;;5068156;28;20435;-41
2022/05/20 13:29:14;;;;;;;11.52;9.45;;;20.20;99.90;;;;;;5067447;28;20056;-41
2022/05/20 13:31:40;;;;;;;11.23;9.35;;;20.30;99.90;;;;;;5066929;28;20025;-41
2022/05/20 13:34:05;;;;;;;10.77;8.82;;;20.40;99.90;;;;;;5068031;28;20487;-41
2022/05/20 13:36:41;;;;;;;11.75;10.25;;;20.50;99.90;;;;;;5066006;28;20017;-41
2022/05/20 13:39:11;;;;;;;12.07;10.02;;;20.60;99.90;;;;;;5068542;28;20761;-40
2022/05/20 13:41:39;;;;;;;13.05;10.20;;;20.70;99.90;;;;;;5066393;28;20583;-40